• Join FlightAware (Why Join?)
  • Login
  • US Flag 
12:52AM EDT


 

Airport Tracker/Info


-or-


 

Live Flight TrackerFlight Track Log ✈ N507PD ✈ 06-May-2013 ✈ KCPS - KHPN

Flight Track Log - Related Links

Times and Time Zones

All times are in EDT time to prevent confusion due to time zone crossing. See the N507PD flight status page for this flight to view local times or setup timezone preferences in your user account.

Time Position Orientation Groundspeed Altitude Reporting Facility
EDT Latitude Longitude Course Direction KTS MPH feet Rate Location/Type
08:19AM 38.5333 -90.1000 65° Northeast 230 265 2,400  Level Gateway (St. Louis) TRACON
08:20AM 38.5661 -90.0108 65° Northeast 229 264 6,100 3,060 Climbing Kansas City Center
08:21AM 38.6053 -89.9381 55° Northeast 239 275 9,200 3,120 Climbing Kansas City Center
08:22AM 38.6425 -89.8592 59° Northeast 254 292 12,600 2,940 Climbing Kansas City Center
08:23AM 38.6806 -89.7792 59° Northeast 262 302 15,300 2,700 Climbing Kansas City Center
08:25AM 38.7402 -89.6463 60° Northeast  Level FlightAware Approximate
08:25AM 38.7672 -89.5947 60° Northeast 284 327 21,000  Level Kansas City Center
08:26AM 38.7953 -89.4922 71° East 284 327 24,000 2,760 Climbing Kansas City Center
08:27AM 38.8069 -89.3925 81° East 283 326 26,700 2,640 Climbing Kansas City Center
08:28AM 38.8183 -89.2981 81° East 270 311 29,400 2,460 Climbing Kansas City Center
08:29AM 38.8303 -89.2086 80° East 257 296 31,800 1,980 Climbing Kansas City Center
08:30AM 38.8439 -89.1122 80° East 256 295 33,500 1,380 Climbing Kansas City Center
08:31AM 38.8561 -89.0128 81° East 277 319 34,700 1,080 Climbing Kansas City Center
08:32AM 38.8689 -88.9167 80° East 297 342 35,700 1,020 Climbing Kansas City Center
08:34AM 38.8822 -88.8072 81° East 308 354 36,800 1,020 Climbing Kansas City Center
08:36AM 38.9119 -88.5572 81° East 323 372 38,900 780 Climbing Kansas City Center
08:39AM 38.9953 -88.2164 72° East 335 386 41,000 480 Climbing Indianapolis Center
08:40AM 39.0272 -88.0972 71° East 347 399 41,000  Level Indianapolis Center
08:41AM 39.0728 -87.9775 64° Northeast 365 420 41,000  Level Indianapolis Center
08:42AM 39.1189 -87.8547 64° Northeast 377 434 41,000  Level Indianapolis Center
08:43AM 39.1694 -87.7317 62° Northeast 385 443 41,000  Level Indianapolis Center
08:44AM 39.2225 -87.5997 63° Northeast 395 455 41,000  Level Indianapolis Center
08:46AM 39.3250 -87.3464 62° Northeast 400 460 41,000  Level Indianapolis Center
08:48AM 39.4261 -87.0897 63° Northeast 402 463 41,000  Level Indianapolis Center
08:49AM 39.4881 -86.9358 62° Northeast 403 464 41,000  Level Indianapolis Center
08:50AM 39.5386 -86.8078 63° Northeast 403 464 41,000  Level Indianapolis Center
08:52AM 39.6126 -86.6191 63° Northeast  Level FlightAware Approximate
08:53AM 39.6908 -86.4156 63° Northeast 397 457 41,000  Level Indianapolis Center
08:54AM 39.7411 -86.2872 63° Northeast 397 457 41,000  Level Indianapolis Center
08:55AM 39.7903 -86.1589 63° Northeast 395 455 41,000  Level Indianapolis Center
08:57AM 39.8574 -85.9843 63° Northeast  Level FlightAware Approximate
08:57AM 39.8875 -85.9053 63° Northeast 390 449 41,000  Level Indianapolis Center
08:58AM 39.9350 -85.7803 64° Northeast 388 447 41,000  Level Indianapolis Center
08:59AM 39.9828 -85.6550 64° Northeast 387 445 41,000  Level Indianapolis Center
09:01AM 40.0448 -85.4910 64° Northeast  Level FlightAware Approximate
09:01AM 40.0864 -85.3803 64° Northeast 386 444 41,000  Level Indianapolis Center
09:02AM 40.1328 -85.2547 64° Northeast 386 444 41,000  Level Indianapolis Center
09:03AM 40.1794 -85.1294 64° Northeast 386 444 41,000  Level Indianapolis Center
09:05AM 40.2331 -84.9741 65° Northeast  Level FlightAware Approximate
09:07AM 40.3675 -84.6178 65° Northeast 387 445 41,000  Level Indianapolis Center
09:10AM 40.4592 -84.3587 65° Northeast  Level FlightAware Approximate
09:10AM 40.5111 -84.2319 65° Northeast 394 453 41,000  Level Cleveland Center
09:11AM 40.5569 -84.1006 65° Northeast 399 459 41,000  Level Cleveland Center
09:12AM 40.5314 -84.1543 65° Northeast  Level FlightAware Approximate
09:12AM 40.6097 -83.9456 66° East 392 451 41,000  Level Indianapolis Center
09:13AM 40.5723 -84.0358 65° Northeast  Level FlightAware Approximate
09:14AM 40.7000 -83.6972 64° Northeast 393 452 41,000  Level Cleveland Center
09:15AM 40.7472 -83.5650 65° Northeast 399 459 41,000  Level Cleveland Center
09:18AM 40.8886 -83.1622 65° Northeast 399 459 41,000  Level Cleveland Center
09:19AM 40.9311 -83.0264 67° East 394 453 41,000  Level Cleveland Center
09:20AM 40.9756 -82.8933 66° East 395 455 41,000  Level Cleveland Center
09:22AM 41.0703 -82.6211 65° Northeast 395 455 41,000  Level Cleveland Center
09:23AM 41.1122 -82.4958 66° East 401 461 41,000  Level Cleveland Center
09:25AM 41.2061 -82.2225 65° Northeast 401 461 41,000  Level Cleveland Center
09:26AM 41.2517 -82.0856 66° East 406 467 41,000  Level Cleveland Center
09:27AM 41.2889 -81.9456 70° East 406 467 41,000  Level Cleveland Center
09:28AM 41.3239 -81.8053 73° East 399 459 41,000  Level Cleveland Center
09:29AM 41.3240 -81.7957 73° East  Level FlightAware Approximate
09:30AM 41.3933 -81.5131 72° East 393 452 41,000  Level Cleveland Center
09:31AM 41.4236 -81.3861 72° East 393 452 41,000  Level Cleveland Center
09:33AM 41.4566 -81.2374 73° East  Level FlightAware Approximate
09:35AM 41.5594 -80.8189 73° East 398 458 41,000  Level Cleveland Center
09:36AM 41.5931 -80.6803 72° East 398 458 41,000  Level Cleveland Center
09:38AM 41.6145 -80.5319 79° East  Level FlightAware Approximate
09:39AM 41.6947 -80.2411 73° East 398 458 41,000  Level Cleveland Center
09:40AM 41.6565 -80.3577 71° East  Level FlightAware Approximate
09:40AM 41.7297 -80.0964 72° East 405 466 41,000  Level Cleveland Center
09:41AM 41.6872 -80.2328 73° East  Level FlightAware Approximate
09:41AM 41.7622 -79.9542 73° East 405 466 41,000  Level Cleveland Center
09:43AM 41.7950 -79.8023 74° East  Level FlightAware Approximate
09:43AM 41.8272 -79.6692 74° East 400 460 41,000  Level Cleveland Center
09:44AM 41.8572 -79.5378 73° East 400 460 41,000  Level Cleveland Center
09:45AM 41.8176 -79.6509 73° East  Level FlightAware Approximate
09:45AM 41.8892 -79.3922 74° East 400 460 41,000  Level Cleveland Center
09:46AM 41.9231 -79.2464 73° East 405 466 41,000  Level Cleveland Center
09:47AM 41.9525 -79.1006 75° East 405 466 41,000  Level Cleveland Center
09:48AM 41.9858 -78.9517 73° East 405 466 41,000  Level Cleveland Center
09:49AM 42.0172 -78.8056 74° East 400 460 41,000  Level Cleveland Center
09:51AM 42.0438 -78.6554 77° East  Level FlightAware Approximate
09:52AM 42.1156 -78.3494 74° East 405 466 41,000  Level Cleveland Center
09:53AM 42.1458 -78.2000 75° East 405 466 41,000  Level Cleveland Center
09:54AM 42.1742 -78.0644 74° East 405 466 41,000 -420 Level Cleveland Center
09:56AM 42.1993 -77.9119 77° East  Level FlightAware Approximate
09:56AM 42.2361 -77.7647 77° East 405 466 39,900  Level Cleveland Center
09:57AM 42.2658 -77.6172 75° East 405 466 38,900 -1,080 Descending Cleveland Center
09:58AM 42.2215 -77.7593 74° East  Level FlightAware Approximate
09:59AM 42.2814 -77.4563 73° East  Level FlightAware Approximate
09:59AM 42.3244 -77.3197 73° East 400 460 36,800  Level Cleveland Center
10:01AM 42.3443 -77.1620 75° East  Level FlightAware Approximate
10:02AM 42.4158 -76.8731 75° East 408 470 33,700  Level Boston Center
10:04AM 42.4483 -76.6946 76° East  Level FlightAware Approximate
10:06AM 42.4639 -76.3019 106° East 407 468 33,000  Level Boston Center
10:08AM 42.4199 -76.1281 109° East  Level FlightAware Approximate
10:08AM 42.3933 -75.9742 109° East 427 491 32,000  Level Boston Center
10:10AM 42.3526 -75.7990 107° East  Level FlightAware Approximate
10:10AM 42.3294 -75.6672 107° East 427 491 28,500  Level Boston Center
10:11AM 42.3433 -75.7857 106° East  Level FlightAware Approximate
10:11AM 42.3003 -75.5197 105° East 427 491 26,200  Level Boston Center
10:12AM 42.3154 -75.6569 106° East  Level FlightAware Approximate
10:13AM 42.2600 -75.3733 98° East  Level FlightAware Approximate
10:13AM 42.2275 -75.1822 98° East 408 470 20,800  Level Boston Center
10:15AM 42.1708 -74.9361 107° East 353 406 18,000 -840 Descending Boston Center
10:17AM 42.1110 -74.8024 121° Southeast  Level FlightAware Approximate
10:19AM 42.0197 -74.5781 129° Southeast 358 412 16,600  Level Boston Center
10:20AM 41.9656 -74.4533 120° Southeast 352 405 15,500 -1,140 Descending Boston Center
10:22AM 41.8222 -74.3039 142° Southeast 328 377 13,300 -1,080 Descending Boston Center
10:23AM 41.7481 -74.2517 152° Southeast 333 383 12,400 -960 Descending Boston Center
10:24AM 41.7540 -74.0065 129° Southeast  Level FlightAware Approximate
10:24AM 41.6658 -74.1825 148° Southeast 320 368 11,200  Level Boston Center
10:25AM 41.5772 -74.1106 149° Southeast 314 361 9,900 -1,200 Descending Boston Center
10:26AM 41.5094 -74.0533 148° Southeast 308 354 8,800 -1,140 Descending Boston Center
10:28AM 41.3833 -73.9500 148° Southeast 274 315 6,800 -1,140 Descending New York TRACON
10:30AM 41.2681 -73.7261 151° Southeast  Level FlightAware Approximate
10:33AM 41.1000 -73.7333 246° West 184 212 1,300  Level New York TRACON
10:35AM 41.0667 -73.7000 246° West  Level FlightAware Approximate
10:37AM 41.0667 -73.7000 246° West  Level FlightAware Approximate
10:38AM 41.0669 -73.7076 246° West  Level Estimated
10:42AM 41.0669 -73.7076 246° West  Level Estimated
10:43AM 41.0667 -73.7000 246° West  Level FlightAware Approximate